createdAt,value
2022-10-21T00:01:32.507Z,12.60
2022-10-21T00:04:03.145Z,12.33
2022-10-21T00:06:31.857Z,11.83
2022-10-21T00:09:00.738Z,12.03
2022-10-21T00:11:29.503Z,11.90
2022-10-21T00:13:58.374Z,11.97
2022-10-21T00:16:27.328Z,11.83
2022-10-21T00:18:57.691Z,11.83
2022-10-21T00:21:26.494Z,12.57
2022-10-21T00:23:55.933Z,12.63
2022-10-21T00:26:24.970Z,12.43
2022-10-21T00:28:57.941Z,12.53
2022-10-21T00:31:27.761Z,12.53
2022-10-21T00:33:58.313Z,12.40
2022-10-21T00:36:27.119Z,13.60
2022-10-21T00:38:57.960Z,12.97
2022-10-21T00:41:26.867Z,12.87
2022-10-21T00:43:58.422Z,12.63
2022-10-21T00:46:34.931Z,12.43
2022-10-21T00:49:09.725Z,12.10
2022-10-21T00:51:38.841Z,12.83
2022-10-21T00:54:08.279Z,12.97
2022-10-21T00:56:38.408Z,11.90
2022-10-21T00:59:08.498Z,12.37
2022-10-21T01:01:37.422Z,11.87
2022-10-21T01:04:07.976Z,13.07
2022-10-21T01:06:39.062Z,13.40
2022-10-21T01:09:08.855Z,12.83
2022-10-21T01:11:42.996Z,12.23
2022-10-21T01:14:26.648Z,12.63
2022-10-21T01:17:20.563Z,12.90
2022-10-21T01:20:29.699Z,12.37
2022-10-21T01:23:23.673Z,12.70
2022-10-21T01:26:20.960Z,12.17
2022-10-21T01:29:07.360Z,13.20
2022-10-21T01:31:43.350Z,13.23
2022-10-21T01:34:19.465Z,14.07
2022-10-21T01:36:54.494Z,13.23
2022-10-21T01:39:29.539Z,13.73
2022-10-21T01:42:06.069Z,13.47
2022-10-21T01:44:41.647Z,13.87
2022-10-21T01:47:17.689Z,13.90
2022-10-21T01:49:50.412Z,14.20
2022-10-21T01:52:19.516Z,14.10
2022-10-21T01:54:55.181Z,13.93
2022-10-21T01:57:28.528Z,13.47
2022-10-21T02:00:01.667Z,14.57
2022-10-21T02:02:38.750Z,14.83
2022-10-21T02:05:13.672Z,15.60
2022-10-21T02:07:42.646Z,15.77
2022-10-21T02:10:12.143Z,15.10
2022-10-21T02:12:42.971Z,15.67
2022-10-21T02:15:13.886Z,14.40
2022-10-21T02:17:49.427Z,16.47
2022-10-21T02:20:20.351Z,15.37
2022-10-21T02:22:50.567Z,15.33
2022-10-21T02:25:23.285Z,15.73
2022-10-21T02:27:52.516Z,15.20
2022-10-21T02:30:21.735Z,14.90
2022-10-21T02:32:58.384Z,14.80
2022-10-21T02:35:39.037Z,14.43
2022-10-21T02:38:13.928Z,15.40
2022-10-21T02:40:45.973Z,15.33
2022-10-21T02:43:19.804Z,14.80
2022-10-21T02:45:49.534Z,15.17
2022-10-21T02:48:20.022Z,14.63
2022-10-21T02:50:48.759Z,14.77
2022-10-21T02:53:17.462Z,15.00
2022-10-21T02:55:46.180Z,15.30
2022-10-21T02:58:14.948Z,15.23
2022-10-21T03:00:43.829Z,15.70
2022-10-21T03:03:12.701Z,16.27
2022-10-21T03:05:43.123Z,16.20
2022-10-21T03:08:11.990Z,16.03
2022-10-21T03:10:41.001Z,15.70
2022-10-21T03:13:10.181Z,17.03
2022-10-21T03:15:38.778Z,16.37
2022-10-21T03:18:07.674Z,17.43
2022-10-21T03:20:36.620Z,15.87
2022-10-21T03:23:07.074Z,15.33
2022-10-21T03:25:36.048Z,15.23
2022-10-21T03:28:04.967Z,15.03
2022-10-21T03:30:33.806Z,15.43
2022-10-21T03:33:02.521Z,15.37
2022-10-21T03:35:31.389Z,15.97
2022-10-21T03:37:59.953Z,15.37
2022-10-21T03:40:30.799Z,16.47
2022-10-21T03:42:59.650Z,16.07
2022-10-21T03:45:28.683Z,14.37
2022-10-21T03:47:57.513Z,15.67
2022-10-21T03:50:29.143Z,14.97
2022-10-21T03:52:59.293Z,15.83
2022-10-21T03:55:29.416Z,16.70
2022-10-21T03:57:57.860Z,16.07
2022-10-21T04:00:28.333Z,15.43
2022-10-21T04:02:59.625Z,16.30
2022-10-21T04:05:28.244Z,15.93
2022-10-21T04:07:56.687Z,16.07
2022-10-21T04:10:25.477Z,15.97
2022-10-21T04:12:55.798Z,16.37
2022-10-21T04:15:24.738Z,15.80
2022-10-21T04:17:53.514Z,16.97
2022-10-21T04:20:22.620Z,16.13
2022-10-21T04:22:51.362Z,17.43
2022-10-21T04:25:20.181Z,18.47
2022-10-21T04:27:48.753Z,17.47
2022-10-21T04:30:19.454Z,17.57
2022-10-21T04:32:48.285Z,16.67
2022-10-21T04:35:17.149Z,17.30
2022-10-21T04:37:46.000Z,17.73
2022-10-21T04:40:14.834Z,16.67
2022-10-21T04:42:43.838Z,17.17
2022-10-21T04:45:12.457Z,16.90
2022-10-21T04:47:42.850Z,16.40
2022-10-21T04:50:12.419Z,16.97
2022-10-21T04:52:41.179Z,16.37
2022-10-21T04:55:10.388Z,16.90
2022-10-21T04:57:40.166Z,17.10
2022-10-21T05:00:10.111Z,16.63
2022-10-21T05:02:38.913Z,16.23
2022-10-21T05:05:10.098Z,16.37
2022-10-21T05:07:38.721Z,16.93
2022-10-21T05:10:07.772Z,16.60
2022-10-21T05:15:10.649Z,17.80
2022-10-21T05:17:39.468Z,16.63
2022-10-21T05:20:11.877Z,17.57
2022-10-21T05:22:40.769Z,17.00
2022-10-21T05:25:10.095Z,17.23
2022-10-21T05:27:38.723Z,17.33
2022-10-21T05:30:08.374Z,16.13
2022-10-21T05:32:37.189Z,16.17
2022-10-21T05:35:06.393Z,17.13
2022-10-21T05:37:36.280Z,16.40
2022-10-21T05:40:06.004Z,17.33
2022-10-21T05:42:34.737Z,17.40
2022-10-21T05:45:03.254Z,18.00
2022-10-21T05:47:31.787Z,17.50
2022-10-21T05:50:00.317Z,16.10
2022-10-21T05:52:28.939Z,16.80
2022-10-21T05:54:58.791Z,15.67
2022-10-21T05:57:27.323Z,15.23
2022-10-21T05:59:55.880Z,16.00
2022-10-21T06:02:24.602Z,16.10
2022-10-21T06:04:53.206Z,16.87
2022-10-21T06:07:21.730Z,15.17
2022-10-21T06:09:50.334Z,15.90
2022-10-21T06:12:20.404Z,15.70
2022-10-21T06:14:49.206Z,16.57
2022-10-21T06:17:17.879Z,15.57
2022-10-21T06:19:50.040Z,15.73
2022-10-21T06:22:19.799Z,16.23
2022-10-21T06:24:49.573Z,15.90
2022-10-21T06:27:20.228Z,16.13
2022-10-21T06:29:48.928Z,16.70
2022-10-21T06:32:17.695Z,16.53
2022-10-21T06:34:46.519Z,15.87
2022-10-21T06:37:15.404Z,15.33
2022-10-21T06:39:43.947Z,15.00
2022-10-21T06:42:12.849Z,14.97
2022-10-21T06:44:43.657Z,15.40
2022-10-21T06:47:12.326Z,15.03
2022-10-21T06:49:41.134Z,14.70
2022-10-21T06:52:09.999Z,14.93
2022-10-21T06:54:38.622Z,14.97
2022-10-21T06:57:07.558Z,14.47
2022-10-21T06:59:36.144Z,14.87
2022-10-21T07:02:06.308Z,14.57
2022-10-21T07:04:34.848Z,14.90
2022-10-21T07:07:03.682Z,15.90
2022-10-21T07:09:32.320Z,14.00
2022-10-21T07:12:02.631Z,15.03
2022-10-21T07:14:31.332Z,14.17
2022-10-21T07:17:00.201Z,14.70
2022-10-21T07:19:30.241Z,14.53
2022-10-21T07:21:59.009Z,14.97
2022-10-21T07:24:27.715Z,15.60
2022-10-21T07:26:56.311Z,13.80
2022-10-21T07:29:24.920Z,14.80
2022-10-21T07:31:53.630Z,14.07
2022-10-21T07:34:22.670Z,13.43
2022-10-21T07:36:53.563Z,14.83
2022-10-21T07:39:24.432Z,15.30
2022-10-21T07:41:55.122Z,14.30
2022-10-21T07:44:25.441Z,14.73
2022-10-21T07:46:55.141Z,14.77
2022-10-21T07:49:24.445Z,14.60
2022-10-21T07:51:54.642Z,16.47
2022-10-21T07:54:23.369Z,15.33
2022-10-21T07:56:53.262Z,16.03
2022-10-21T07:59:22.781Z,16.63
2022-10-21T08:01:53.293Z,17.20
2022-10-21T08:04:25.083Z,17.53
2022-10-21T08:06:55.218Z,16.73
2022-10-21T08:09:24.105Z,14.93
2022-10-21T08:11:52.768Z,15.13
2022-10-21T08:14:21.307Z,15.13
2022-10-21T08:16:53.307Z,15.63
2022-10-21T08:19:25.407Z,15.00
2022-10-21T08:21:55.855Z,15.60
2022-10-21T08:24:24.872Z,15.10
2022-10-21T08:26:53.932Z,15.30
2022-10-21T08:29:22.594Z,15.07
2022-10-21T08:31:51.144Z,14.53
2022-10-21T08:34:19.650Z,15.87
2022-10-21T08:36:48.207Z,16.90
2022-10-21T08:39:21.662Z,16.13
2022-10-21T08:42:12.945Z,16.30
2022-10-21T08:44:55.522Z,15.07
2022-10-21T08:47:32.946Z,16.63
2022-10-21T08:50:06.156Z,15.33
2022-10-21T08:52:42.770Z,15.47
2022-10-21T08:55:32.735Z,14.90
2022-10-21T08:58:02.170Z,15.40
2022-10-21T09:00:36.909Z,15.77
2022-10-21T09:03:22.480Z,15.30
2022-10-21T09:06:15.515Z,15.70
2022-10-21T09:08:57.251Z,15.47
2022-10-21T09:11:37.216Z,15.43
2022-10-21T09:14:43.657Z,16.13
2022-10-21T09:17:24.684Z,14.77
2022-10-21T09:20:03.802Z,14.03
2022-10-21T09:22:45.800Z,14.50
2022-10-21T09:25:21.969Z,14.03
2022-10-21T09:27:57.221Z,14.60
2022-10-21T09:30:26.589Z,14.00
2022-10-21T09:32:58.568Z,14.87
2022-10-21T09:35:34.591Z,13.67
2022-10-21T09:38:12.990Z,14.17
2022-10-21T09:40:41.815Z,14.97
2022-10-21T09:43:18.721Z,15.10
2022-10-21T09:45:48.029Z,14.80
2022-10-21T09:48:28.885Z,13.47
2022-10-21T09:51:02.399Z,14.57
2022-10-21T09:53:35.812Z,13.73
2022-10-21T09:56:10.789Z,14.70
2022-10-21T09:58:51.768Z,14.00
2022-10-21T10:01:22.386Z,15.07
2022-10-21T10:03:52.532Z,13.67
2022-10-21T10:06:35.816Z,13.20
2022-10-21T10:09:16.409Z,12.60
2022-10-21T10:11:54.679Z,12.57
2022-10-21T10:14:31.827Z,13.40
2022-10-21T10:17:21.996Z,12.50
2022-10-21T10:20:13.245Z,12.90
2022-10-21T10:22:43.550Z,13.27
2022-10-21T10:25:24.112Z,12.70
2022-10-21T10:27:56.161Z,12.73
2022-10-21T10:30:29.754Z,14.03
2022-10-21T10:32:58.935Z,12.23
2022-10-21T10:35:35.192Z,12.53
2022-10-21T10:38:04.543Z,10.73
2022-10-21T10:40:39.572Z,12.30
2022-10-21T10:43:14.767Z,12.30
2022-10-21T10:45:54.056Z,12.30
2022-10-21T10:48:27.998Z,11.77
2022-10-21T10:50:58.192Z,12.13
2022-10-21T10:53:34.213Z,12.40
2022-10-21T10:56:14.020Z,11.97
2022-10-21T10:58:47.646Z,12.13
2022-10-21T11:01:26.836Z,11.80
2022-10-21T11:03:59.512Z,12.23
2022-10-21T11:06:36.263Z,11.47
2022-10-21T11:09:07.989Z,11.43
2022-10-21T11:11:40.000Z,11.60
2022-10-21T11:14:17.544Z,12.03
2022-10-21T11:17:01.071Z,12.63
2022-10-21T11:19:42.279Z,11.40
2022-10-21T11:22:16.463Z,10.77
2022-10-21T11:24:59.790Z,11.57
2022-10-21T11:28:00.993Z,11.73
2022-10-21T11:30:41.311Z,11.90
2022-10-21T11:33:20.022Z,11.10
2022-10-21T11:35:58.007Z,12.50
2022-10-21T11:38:43.361Z,10.10
2022-10-21T11:41:25.732Z,11.20
2022-10-21T11:44:07.493Z,11.57
2022-10-21T11:46:45.074Z,11.00
2022-10-21T11:49:33.004Z,11.03
2022-10-21T11:52:14.436Z,11.33
2022-10-21T11:55:08.908Z,10.83
2022-10-21T11:57:47.680Z,11.20
2022-10-21T12:00:20.655Z,11.90
2022-10-21T12:03:06.731Z,11.57
2022-10-21T12:05:43.899Z,11.50
2022-10-21T12:08:17.057Z,11.50
2022-10-21T12:10:49.748Z,10.90
2022-10-21T12:13:24.158Z,11.43
2022-10-21T12:15:57.872Z,11.63
2022-10-21T12:18:29.588Z,12.30
2022-10-21T12:21:01.187Z,11.50
2022-10-21T12:23:32.563Z,11.57
2022-10-21T12:26:15.514Z,10.93
2022-10-21T12:28:50.121Z,11.10
2022-10-21T12:31:32.514Z,10.80
2022-10-21T12:34:01.216Z,10.50
2022-10-21T12:36:45.220Z,10.47
2022-10-21T12:39:50.509Z,10.57
2022-10-21T12:42:21.168Z,10.07
2022-10-21T12:44:51.128Z,9.10
2022-10-21T12:47:26.741Z,10.33
2022-10-21T12:50:20.191Z,13.40
2022-10-21T12:53:06.740Z,10.17
2022-10-21T12:55:40.841Z,10.97
2022-10-21T12:58:31.662Z,10.43
2022-10-21T13:01:02.417Z,11.30
2022-10-21T13:03:56.467Z,10.13
2022-10-21T13:06:52.032Z,10.77
2022-10-21T13:09:40.631Z,10.80
2022-10-21T13:12:29.042Z,11.27
2022-10-21T13:14:59.237Z,11.57
2022-10-21T13:17:31.476Z,11.43
2022-10-21T13:20:38.517Z,11.07
2022-10-21T13:23:41.772Z,14.03
2022-10-21T13:26:20.724Z,16.00
2022-10-21T13:28:58.707Z,14.67
2022-10-21T13:31:28.011Z,14.23
2022-10-21T13:33:57.488Z,12.57
2022-10-21T13:36:41.370Z,11.07
2022-10-21T13:39:24.262Z,8.43
2022-10-21T13:42:06.607Z,8.40
2022-10-21T13:44:39.481Z,8.57
2022-10-21T13:47:29.125Z,8.60
2022-10-21T13:50:01.964Z,8.60
2022-10-21T13:52:31.944Z,8.20
2022-10-21T13:55:02.129Z,9.77
2022-10-21T13:57:33.808Z,7.70
2022-10-21T14:00:05.302Z,7.90
2022-10-21T14:02:34.132Z,7.23
2022-10-21T14:05:03.284Z,8.60
2022-10-21T14:07:31.907Z,8.07
2022-10-21T14:10:00.665Z,8.30
2022-10-21T14:12:34.283Z,8.97
2022-10-21T14:15:07.600Z,8.13
2022-10-21T14:17:40.623Z,8.73
2022-10-21T14:20:14.953Z,9.13
2022-10-21T14:22:48.825Z,9.70
2022-10-21T14:25:19.198Z,9.43
2022-10-21T14:27:50.131Z,9.10
2022-10-21T14:30:21.846Z,8.27
2022-10-21T14:32:51.983Z,9.70
2022-10-21T14:35:26.380Z,9.70
2022-10-21T14:37:56.614Z,9.53
2022-10-21T14:40:31.864Z,9.33
2022-10-21T14:43:04.137Z,9.70
2022-10-21T14:45:35.054Z,8.87
2022-10-21T14:48:10.554Z,9.43
2022-10-21T14:50:41.204Z,9.60
2022-10-21T14:53:17.965Z,9.67
2022-10-21T14:55:48.133Z,9.87
2022-10-21T14:58:23.829Z,10.43
2022-10-21T15:00:57.477Z,10.43
2022-10-21T15:03:40.860Z,11.03
2022-10-21T15:06:12.003Z,11.27
2022-10-21T15:08:45.994Z,13.53
2022-10-21T15:11:23.352Z,14.83
2022-10-21T15:14:28.751Z,16.03
2022-10-21T15:16:59.978Z,14.57
2022-10-21T15:19:33.857Z,15.53
2022-10-21T15:22:04.460Z,17.47
2022-10-21T15:24:43.103Z,19.70
2022-10-21T15:27:18.793Z,25.90
2022-10-21T15:29:49.423Z,29.80
2022-10-21T15:32:25.462Z,32.13
2022-10-21T15:34:56.944Z,29.63
2022-10-21T15:37:25.728Z,30.37
2022-10-21T15:39:54.508Z,50.80
2022-10-21T15:42:23.149Z,40.70
2022-10-21T15:44:53.614Z,57.53
2022-10-21T15:47:24.176Z,97.30
2022-10-21T15:49:54.534Z,110.63
2022-10-21T15:52:23.341Z,74.97
2022-10-21T15:54:51.865Z,71.47
2022-10-21T15:57:22.689Z,63.03
2022-10-21T15:59:52.935Z,60.77
2022-10-21T16:02:21.632Z,56.43
2022-10-21T16:04:52.982Z,49.73
2022-10-21T16:07:24.871Z,52.87
2022-10-21T16:09:53.413Z,37.87
2022-10-21T16:12:23.100Z,29.20
2022-10-21T16:14:54.249Z,30.33
2022-10-21T16:17:23.805Z,55.13
2022-10-21T16:19:52.378Z,61.73
2022-10-21T16:22:23.238Z,75.73
2022-10-21T16:24:52.071Z,125.73
2022-10-21T16:27:31.336Z,88.80
2022-10-21T16:30:28.157Z,52.17
2022-10-21T16:32:57.389Z,28.37
2022-10-21T16:35:26.813Z,23.50
2022-10-21T16:37:55.719Z,24.03
2022-10-21T16:40:26.550Z,28.03
2022-10-21T16:42:55.615Z,25.27
2022-10-21T16:45:30.497Z,20.20
2022-10-21T16:48:01.042Z,25.07
2022-10-21T16:50:36.941Z,33.30
2022-10-21T16:53:06.411Z,47.20
2022-10-21T16:55:35.002Z,50.67
2022-10-21T16:58:03.593Z,44.63
2022-10-21T17:00:33.944Z,34.30
2022-10-21T17:03:03.054Z,34.57
2022-10-21T17:05:32.012Z,30.60
2022-10-21T17:08:00.680Z,28.90
2022-10-21T17:10:29.565Z,23.70
2022-10-21T17:12:59.345Z,31.20
2022-10-21T17:15:28.880Z,26.33
2022-10-21T17:17:59.335Z,21.47
2022-10-21T17:20:30.594Z,20.90
2022-10-21T17:23:00.054Z,19.30
2022-10-21T17:25:29.768Z,19.43
2022-10-21T17:27:59.043Z,20.30
2022-10-21T17:30:28.184Z,20.17
2022-10-21T17:32:59.024Z,19.27
2022-10-21T17:35:27.996Z,19.73
2022-10-21T17:37:57.052Z,21.03
2022-10-21T17:40:27.923Z,22.27
2022-10-21T17:42:58.507Z,21.57
2022-10-21T17:45:27.840Z,24.83
2022-10-21T17:47:58.699Z,23.97
2022-10-21T17:50:27.522Z,27.77
2022-10-21T17:52:56.772Z,28.97
2022-10-21T17:55:25.815Z,32.70
2022-10-21T17:57:54.430Z,32.83
2022-10-21T18:00:23.635Z,32.17
2022-10-21T18:02:52.657Z,28.20
2022-10-21T18:05:23.248Z,29.77
2022-10-21T18:07:52.586Z,27.30
2022-10-21T18:10:21.943Z,22.80
2022-10-21T18:12:51.539Z,25.63
2022-10-21T18:15:22.685Z,24.87
2022-10-21T18:17:52.649Z,23.40
2022-10-21T18:20:24.232Z,22.90
2022-10-21T18:22:54.415Z,28.27
2022-10-21T18:25:23.527Z,26.07
2022-10-21T18:27:52.993Z,25.23
2022-10-21T18:30:22.170Z,24.13
2022-10-21T18:32:51.448Z,22.23
2022-10-21T18:35:20.971Z,21.93
2022-10-21T18:37:52.259Z,21.63
2022-10-21T18:40:21.595Z,22.97
2022-10-21T18:42:50.778Z,24.00
2022-10-21T18:45:20.385Z,24.57
2022-10-21T18:47:51.690Z,25.40
2022-10-21T18:50:21.060Z,24.20
2022-10-21T18:52:52.008Z,24.10
2022-10-21T18:55:21.996Z,23.67
2022-10-21T18:57:51.498Z,22.97
2022-10-21T19:00:21.203Z,23.30
2022-10-21T19:02:50.890Z,23.80
2022-10-21T19:05:20.969Z,26.70
2022-10-21T19:07:52.701Z,28.03
2022-10-21T19:10:22.291Z,26.10
2022-10-21T19:12:52.643Z,23.90
2022-10-21T19:15:22.597Z,24.93
2022-10-21T19:17:52.049Z,23.43
2022-10-21T19:20:21.391Z,22.83
2022-10-21T19:22:52.852Z,22.93
2022-10-21T19:25:22.575Z,23.33
2022-10-21T19:27:51.998Z,23.53
2022-10-21T19:30:20.745Z,22.97
2022-10-21T19:32:49.598Z,23.07
2022-10-21T19:35:18.639Z,22.70
2022-10-21T19:37:47.791Z,22.53
2022-10-21T19:40:18.986Z,21.13
2022-10-21T19:42:48.358Z,22.07
2022-10-21T19:45:18.270Z,21.30
2022-10-21T19:47:48.242Z,22.77
2022-10-21T19:50:18.235Z,21.30
2022-10-21T19:52:47.802Z,19.63
2022-10-21T19:55:19.364Z,20.47
2022-10-21T19:57:48.970Z,20.67
2022-10-21T20:00:18.584Z,18.47
2022-10-21T20:02:48.064Z,19.17
2022-10-21T20:05:17.422Z,17.93
2022-10-21T20:07:46.954Z,18.53
2022-10-21T20:10:20.384Z,18.53
2022-10-21T20:12:49.202Z,18.23
2022-10-21T20:15:18.381Z,18.37
2022-10-21T20:17:47.400Z,17.73
2022-10-21T20:20:16.797Z,17.27
2022-10-21T20:22:45.963Z,19.83
2022-10-21T20:25:15.120Z,19.90
2022-10-21T20:27:45.501Z,20.03
2022-10-21T20:30:14.298Z,19.93
2022-10-21T20:32:43.150Z,20.37
2022-10-21T20:35:14.397Z,21.10
2022-10-21T20:37:43.171Z,22.97
2022-10-21T20:40:12.547Z,23.33
2022-10-21T20:42:41.196Z,24.97
2022-10-21T20:45:12.681Z,26.87
2022-10-21T20:47:41.921Z,27.37
2022-10-21T20:50:11.490Z,26.20
2022-10-21T20:52:40.267Z,23.93
2022-10-21T20:55:09.837Z,23.40
2022-10-21T20:57:38.887Z,22.77
2022-10-21T21:00:08.907Z,23.50
2022-10-21T21:02:39.535Z,22.73
2022-10-21T21:05:09.610Z,23.13
2022-10-21T21:07:39.198Z,22.50
2022-10-21T21:10:08.847Z,22.87
2022-10-21T21:12:37.864Z,22.83
2022-10-21T21:15:07.626Z,22.37
2022-10-21T21:17:36.309Z,21.97
2022-10-21T21:20:07.680Z,23.70
2022-10-21T21:22:37.881Z,22.63
2022-10-21T21:25:07.987Z,25.23
2022-10-21T21:27:37.372Z,23.00
2022-10-21T21:30:07.043Z,24.13
2022-10-21T21:32:35.905Z,23.27
2022-10-21T21:35:06.848Z,23.10
2022-10-21T21:37:35.701Z,23.53
2022-10-21T21:40:04.620Z,22.77
2022-10-21T21:42:33.457Z,22.73
2022-10-21T21:45:02.249Z,22.63
2022-10-21T21:47:30.838Z,22.10
2022-10-21T21:49:59.663Z,22.33
2022-10-21T21:52:31.007Z,21.77
2022-10-21T21:54:59.799Z,22.37
2022-10-21T21:57:28.855Z,21.90
2022-10-21T21:59:57.706Z,20.17
2022-10-21T22:02:26.494Z,20.07
2022-10-21T22:04:55.333Z,21.30
2022-10-21T22:07:24.480Z,20.00
2022-10-21T22:09:54.964Z,19.83
2022-10-21T22:12:23.881Z,20.10
2022-10-21T22:14:52.754Z,20.20
2022-10-21T22:17:21.560Z,20.27
2022-10-21T22:19:53.704Z,20.23
2022-10-21T22:22:22.861Z,20.00
2022-10-21T22:24:51.777Z,20.93
2022-10-21T22:27:22.191Z,20.57
2022-10-21T22:29:51.065Z,21.77
2022-10-21T22:32:19.842Z,22.23
2022-10-21T22:34:48.756Z,23.67
2022-10-21T22:37:17.549Z,23.03
2022-10-21T22:39:46.350Z,24.07
2022-10-21T22:42:15.411Z,24.87
2022-10-21T22:44:45.995Z,24.50
2022-10-21T22:47:14.825Z,23.87
2022-10-21T22:49:44.368Z,25.10
2022-10-21T22:52:13.233Z,24.73
2022-10-21T22:54:49.667Z,25.37
2022-10-21T22:57:18.917Z,25.83
2022-10-21T22:59:53.029Z,26.13
2022-10-21T23:02:22.285Z,26.37
2022-10-21T23:04:51.086Z,26.97
2022-10-21T23:07:19.917Z,26.00
2022-10-21T23:09:51.384Z,27.13
2022-10-21T23:12:20.265Z,27.33
2022-10-21T23:14:50.744Z,26.03
2022-10-21T23:17:19.427Z,26.70
2022-10-21T23:19:47.976Z,27.13
2022-10-21T23:22:16.852Z,29.20
2022-10-21T23:24:45.858Z,28.83
2022-10-21T23:27:15.183Z,28.90
2022-10-21T23:29:44.059Z,29.50
2022-10-21T23:32:14.669Z,28.97
2022-10-21T23:34:43.538Z,29.77
2022-10-21T23:37:12.478Z,29.00
2022-10-21T23:39:41.537Z,28.90
2022-10-21T23:42:11.150Z,29.13
2022-10-21T23:44:40.135Z,28.83
2022-10-21T23:47:09.000Z,28.63
2022-10-21T23:49:39.453Z,29.57
2022-10-21T23:52:08.324Z,29.60
2022-10-21T23:54:37.661Z,28.47
2022-10-21T23:57:06.390Z,29.07
2022-10-21T23:59:36.584Z,29.60
